Time;durP1;ratioP1;P1;durP2;ratioP2;P2;SDS_P1;SDS_P2;PMS_P1;PMS_P2;Temp;Humidity;BMP_temperature;BMP_pressure;BME280_temperature;BME280_humidity;BME280_pressure;Samples;Min_cycle;Max_cycle;Signal;HPM_P1;HPM_P2
2024/01/15 00:01:22;;;;;;;1.17;1.17;;;;;;;2.93;66.35;99611.44;5033236;28;20231;-78
2024/01/15 00:03:49;;;;;;;0.97;0.97;;;;;;;2.89;67.23;99606.19;5033531;28;20590;-78
2024/01/15 00:06:17;;;;;;;1.00;1.00;;;;;;;2.88;66.51;99591.63;5033108;28;20200;-78
2024/01/15 00:08:44;;;;;;;0.90;0.90;;;;;;;2.89;64.82;99593.38;5033101;28;20227;-78
2024/01/15 00:11:10;;;;;;;0.87;0.87;;;;;;;2.99;63.73;99592.91;5033144;28;20207;-78
2024/01/15 00:13:37;;;;;;;1.47;1.40;;;;;;;3.29;60.84;99604.22;5032039;28;20211;-79
2024/01/15 00:16:05;;;;;;;0.97;0.97;;;;;;;3.68;58.25;99585.94;5032753;28;20227;-79
2024/01/15 00:18:32;;;;;;;0.90;0.90;;;;;;;3.81;56.57;99575.31;5013807;28;20597;-79
2024/01/15 00:20:59;;;;;;;0.70;0.70;;;;;;;4.14;55.76;99599.47;5032455;28;20223;-79
2024/01/15 00:23:27;;;;;;;0.80;0.80;;;;;;;4.28;54.59;99581.97;5031513;28;20223;-78
2024/01/15 00:25:53;;;;;;;1.20;1.20;;;;;;;4.52;52.53;99602.41;5031822;28;20211;-78
2024/01/15 00:28:20;;;;;;;1.00;1.00;;;;;;;4.91;51.21;99596.78;5031824;28;20200;-78
2024/01/15 00:30:47;;;;;;;0.70;0.70;;;;;;;5.10;51.16;99600.72;5031983;28;20703;-77
2024/01/15 00:33:14;;;;;;;0.90;0.90;;;;;;;5.08;50.79;99596.38;5032002;28;20192;-78
2024/01/15 00:35:41;;;;;;;0.70;0.70;;;;;;;4.95;50.68;99579.75;5031956;28;20228;-78
2024/01/15 00:38:08;;;;;;;1.70;1.60;;;;;;;4.83;52.86;99597.34;5031676;28;20330;-78
2024/01/15 00:40:37;;;;;;;3.10;2.20;;;;;;;4.70;54.90;99600.38;5031754;28;20236;-78
2024/01/15 00:43:04;;;;;;;1.10;1.10;;;;;;;4.07;54.51;99541.09;5031653;28;20315;-79
2024/01/15 00:45:31;;;;;;;0.70;0.70;;;;;;;4.38;54.47;99584.88;5031811;28;20212;-79
2024/01/15 00:47:59;;;;;;;2.17;1.97;;;;;;;4.36;53.54;99571.09;5031813;28;20206;-78
2024/01/15 00:50:26;;;;;;;0.80;0.80;;;;;;;4.75;51.54;99591.09;5032281;28;20200;-78
2024/01/15 00:52:53;;;;;;;1.10;1.10;;;;;;;4.60;52.24;99571.00;5031980;28;20219;-78
2024/01/15 00:55:19;;;;;;;1.53;1.53;;;;;;;4.32;54.29;99592.34;5031494;28;20203;-78
2024/01/15 00:57:48;;;;;;;1.20;1.20;;;;;;;4.05;54.05;99577.78;5032159;28;20204;-77
2024/01/15 01:00:15;;;;;;;0.87;0.87;;;;;;;4.26;53.34;99569.09;5032190;28;20208;-77
2024/01/15 01:02:42;;;;;;;1.90;1.80;;;;;;;4.24;54.62;99583.56;5032211;28;20310;-77
2024/01/15 01:05:09;;;;;;;0.90;0.90;;;;;;;3.88;55.00;99569.56;5032131;28;20201;-78
2024/01/15 01:07:36;;;;;;;1.10;1.10;;;;;;;4.15;53.52;99590.97;5031499;28;20230;-79
2024/01/15 01:10:03;;;;;;;0.90;0.90;;;;;;;4.56;52.77;99588.84;5032088;28;20195;-78
2024/01/15 01:12:30;;;;;;;0.70;0.70;;;;;;;4.65;52.75;99564.31;5034950;28;20207;-78
2024/01/15 01:14:58;;;;;;;0.90;0.90;;;;;;;4.52;55.09;99587.88;5036588;28;20204;-78
2024/01/15 01:17:26;;;;;;;2.07;1.97;;;;;;;4.43;55.45;99587.56;5034976;28;20204;-78
2024/01/15 01:19:53;;;;;;;0.90;0.90;;;;;;;3.72;56.41;99477.56;5000128;28;20203;-78
2024/01/15 01:22:19;;;;;;;0.90;0.90;;;;;;;4.37;54.89;99567.72;5035219;28;20224;-77
2024/01/15 01:24:46;;;;;;;0.93;0.93;;;;;;;4.50;53.16;99557.00;5000837;28;20200;-78
2024/01/15 01:27:13;;;;;;;1.67;1.57;;;;;;;4.94;50.44;99572.88;5033323;28;20209;-78
2024/01/15 01:29:40;;;;;;;1.63;1.63;;;;;;;5.17;49.91;99560.69;5035412;28;20189;-78
2024/01/15 01:32:08;;;;;;;0.77;0.77;;;;;;;5.29;49.81;99558.44;5035049;28;20664;-78
2024/01/15 01:34:42;;;;;;;0.70;0.70;;;;;;;5.19;48.82;99549.59;4983863;28;20214;-77
2024/01/15 01:37:08;;;;;;;0.90;0.90;;;;;;;5.13;57.43;99564.88;5032975;28;20266;-78
2024/01/15 01:39:35;;;;;;;0.80;0.80;;;;;;;4.80;59.45;99558.75;5034208;28;20192;-78
2024/01/15 01:42:02;;;;;;;2.23;1.00;;;;;;;4.33;54.55;99537.66;5034863;28;20653;-78
2024/01/15 01:44:29;;;;;;;0.87;0.87;;;;;;;4.72;52.13;99560.22;5034947;28;20196;-77
2024/01/15 01:46:55;;;;;;;0.90;0.90;;;;;;;4.38;50.55;99448.00;5033799;28;20219;-78
2024/01/15 01:49:25;;;;;;;0.90;0.90;;;;;;;5.06;50.35;99536.38;5034606;28;20212;-77
2024/01/15 01:51:52;;;;;;;0.90;0.90;;;;;;;4.96;50.30;99545.50;5034643;28;20200;-77
2024/01/15 01:54:20;;;;;;;0.83;0.83;;;;;;;4.91;50.54;99540.25;4999979;28;20192;-77
2024/01/15 01:56:49;;;;;;;1.40;1.40;;;;;;;4.86;51.25;99549.53;4983856;28;20214;-78
2024/01/15 01:59:15;;;;;;;1.00;1.00;;;;;;;4.70;51.58;99521.69;5034018;28;20204;-78
2024/01/15 02:01:43;;;;;;;0.90;0.90;;;;;;;4.81;51.60;99527.13;5033538;28;20212;-78
2024/01/15 02:04:10;;;;;;;0.80;0.80;;;;;;;4.88;51.70;99529.03;5008791;28;20216;-78
2024/01/15 02:06:38;;;;;;;0.90;0.90;;;;;;;4.77;52.01;99508.19;5034601;28;20553;-78
2024/01/15 02:09:05;;;;;;;0.70;0.70;;;;;;;4.75;51.37;99508.94;5034709;28;20232;-77
2024/01/15 02:11:32;;;;;;;0.80;0.80;;;;;;;4.86;50.93;99515.25;5034359;28;20204;-77
2024/01/15 02:13:59;;;;;;;1.00;1.00;;;;;;;4.83;51.41;99517.75;5034035;28;20675;-77
2024/01/15 02:16:26;;;;;;;0.97;0.97;;;;;;;4.81;51.42;99517.72;5034593;28;20192;-77
2024/01/15 02:18:53;;;;;;;0.90;0.90;;;;;;;4.85;51.32;99510.97;5034403;28;20204;-78
2024/01/15 02:21:19;;;;;;;1.13;1.13;;;;;;;4.94;51.91;99506.09;5034538;28;20258;-78
2024/01/15 02:23:47;;;;;;;5.73;5.40;;;;;;;4.88;51.29;99490.50;5033368;28;20227;-76
2024/01/15 02:26:15;;;;;;;1.57;1.57;;;;;;;4.97;51.31;99506.16;4996212;28;20271;-77
2024/01/15 02:28:44;;;;;;;0.87;0.87;;;;;;;5.04;50.58;99502.94;4996275;28;20197;-76
2024/01/15 02:31:11;;;;;;;1.10;1.10;;;;;;;4.91;50.62;99482.88;5014822;28;20299;-77
2024/01/15 02:33:37;;;;;;;0.90;0.90;;;;;;;4.82;50.57;99462.06;5020297;28;20227;-76
2024/01/15 02:36:05;;;;;;;0.90;0.90;;;;;;;5.00;51.45;99488.25;5034121;28;20615;-77
2024/01/15 02:38:31;;;;;;;0.90;0.90;;;;;;;4.53;51.26;99401.38;5016567;28;20216;-77
2024/01/15 02:41:00;;;;;;;0.90;0.90;;;;;;;5.06;51.30;99488.44;5034380;28;20196;-77
2024/01/15 02:43:26;;;;;;;2.00;2.00;;;;;;;5.06;50.93;99482.44;5033667;28;20220;-78
2024/01/15 02:45:53;;;;;;;0.90;0.90;;;;;;;5.09;50.73;99485.97;5034344;28;20197;-76
2024/01/15 02:48:20;;;;;;;1.00;1.00;;;;;;;4.97;50.09;99465.94;5034629;28;20227;-78
2024/01/15 02:50:47;;;;;;;0.93;0.93;;;;;;;5.09;50.10;99478.25;5034775;28;20192;-78
2024/01/15 02:53:14;;;;;;;1.00;1.00;;;;;;;5.15;50.33;99480.97;5033973;28;20223;-78
2024/01/15 02:55:40;;;;;;;1.20;1.20;;;;;;;5.18;49.60;99477.59;5033900;28;20200;-78
2024/01/15 02:58:09;;;;;;;0.90;0.90;;;;;;;5.28;50.68;99462.47;4999572;28;20605;-78
2024/01/15 03:00:35;;;;;;;0.97;0.97;;;;;;;5.36;49.72;99471.25;5033357;28;20551;-78
2024/01/15 03:03:02;;;;;;;0.90;0.90;;;;;;;5.39;50.14;99466.19;5033235;28;20726;-77
2024/01/15 03:05:29;;;;;;;0.90;0.90;;;;;;;5.32;50.37;99456.59;5031603;28;20648;-78
2024/01/15 03:07:56;;;;;;;0.87;0.87;;;;;;;5.37;50.33;99454.13;5033649;28;20746;-78
2024/01/15 03:10:22;;;;;;;0.90;0.90;;;;;;;5.29;51.34;99437.63;5033565;28;20208;-78
2024/01/15 03:12:49;;;;;;;0.90;0.90;;;;;;;5.28;50.79;99431.63;5032120;28;20204;-77
2024/01/15 03:15:18;;;;;;;0.90;0.90;;;;;;;5.35;51.02;99436.09;5033391;28;20204;-77
2024/01/15 03:17:45;;;;;;;0.87;0.87;;;;;;;5.40;51.10;99447.38;4998894;28;20258;-77
2024/01/15 03:20:12;;;;;;;0.73;0.73;;;;;;;5.39;50.78;99435.34;5033430;28;20219;-78
2024/01/15 03:22:39;;;;;;;0.90;0.90;;;;;;;5.49;51.25;99454.47;4994645;28;20696;-76
2024/01/15 03:25:08;;;;;;;0.80;0.80;;;;;;;5.55;51.35;99436.59;4979511;28;20196;-78
2024/01/15 03:27:34;;;;;;;0.97;0.97;;;;;;;5.58;51.27;99440.94;5031972;28;20672;-77
2024/01/15 03:30:02;;;;;;;0.83;0.83;;;;;;;5.78;51.34;99444.88;5032982;28;20196;-77
2024/01/15 03:32:30;;;;;;;0.80;0.80;;;;;;;5.74;51.06;99453.34;5032029;28;20235;-77
2024/01/15 03:34:57;;;;;;;0.90;0.90;;;;;;;5.64;51.11;99451.38;5032363;28;20211;-76
2024/01/15 03:37:24;;;;;;;1.00;1.00;;;;;;;5.73;50.76;99452.47;5033106;28;20215;-77
2024/01/15 03:39:51;;;;;;;1.33;1.33;;;;;;;5.68;50.95;99437.75;5033172;28;20200;-77
2024/01/15 03:42:17;;;;;;;0.90;0.90;;;;;;;5.88;50.89;99444.28;5031237;28;20205;-78
2024/01/15 03:44:44;;;;;;;0.90;0.90;;;;;;;5.91;50.77;99444.34;5029295;28;20231;-77
2024/01/15 03:47:11;;;;;;;1.53;1.50;;;;;;;6.01;50.70;99445.41;5031535;28;20196;-77
2024/01/15 03:49:39;;;;;;;0.93;0.93;;;;;;;6.01;51.15;99445.41;5032002;28;20200;-78
2024/01/15 03:52:06;;;;;;;0.90;0.90;;;;;;;5.93;50.87;99430.69;5020460;28;20200;-78
2024/01/15 03:54:33;;;;;;;1.00;1.00;;;;;;;5.96;51.94;99437.59;5030667;28;20208;-78
2024/01/15 03:57:00;;;;;;;0.80;0.80;;;;;;;5.84;52.04;99433.03;5032772;28;20200;-81
2024/01/15 03:59:27;;;;;;;2.03;1.93;;;;;;;5.94;52.12;99441.84;5033366;28;20211;-85
2024/01/15 04:01:54;;;;;;;1.10;1.10;;;;;;;5.82;52.26;99413.22;5032016;28;20628;-82
2024/01/15 04:04:21;;;;;;;0.70;0.70;;;;;;;5.74;51.40;99404.47;5030993;28;20247;-77
2024/01/15 04:06:49;;;;;;;1.50;1.40;;;;;;;6.11;52.17;99422.50;5031265;28;20452;-79
2024/01/15 04:09:16;;;;;;;0.90;0.90;;;;;;;6.01;52.06;99412.84;5032000;28;20243;-77
2024/01/15 04:11:42;;;;;;;0.70;0.70;;;;;;;5.97;51.60;99432.50;5031726;28;20734;-77
2024/01/15 04:14:09;;;;;;;0.70;0.70;;;;;;;5.95;51.65;99428.16;5032146;28;20683;-77
2024/01/15 04:16:36;;;;;;;1.10;1.10;;;;;;;5.90;52.04;99434.88;5032220;28;20222;-74
2024/01/15 04:19:03;;;;;;;0.60;0.60;;;;;;;5.96;52.51;99435.00;5032605;28;20219;-78
2024/01/15 04:21:30;;;;;;;1.90;1.80;;;;;;;5.92;51.28;99438.38;5032221;28;20693;-79
2024/01/15 04:23:58;;;;;;;1.00;1.00;;;;;;;5.88;52.88;99434.88;5032145;28;20224;-79
2024/01/15 04:26:24;;;;;;;1.10;1.10;;;;;;;5.88;52.91;99439.16;5031952;28;20199;-78
2024/01/15 04:28:51;;;;;;;1.57;1.47;;;;;;;5.94;51.92;99439.28;5000081;28;20204;-78
2024/01/15 04:31:25;;;;;;;0.90;0.90;;;;;;;5.93;51.68;99440.09;5032384;28;20211;-79
2024/01/15 04:33:52;;;;;;;0.73;0.73;;;;;;;5.68;52.56;99419.75;5030347;28;20215;-79
2024/01/15 04:36:18;;;;;;;0.80;0.80;;;;;;;5.76;52.90;99425.94;5032141;28;20687;-76
2024/01/15 04:38:45;;;;;;;0.87;0.87;;;;;;;5.75;52.25;99434.50;5029346;28;20207;-78
2024/01/15 04:41:14;;;;;;;1.50;1.50;;;;;;;5.71;53.05;99415.53;5031035;28;20204;-78
2024/01/15 04:43:41;;;;;;;0.80;0.80;;;;;;;5.72;51.69;99421.56;5031223;28;20220;-78
2024/01/15 04:46:08;;;;;;;0.80;0.80;;;;;;;5.66;52.60;99421.44;5032990;28;20203;-76
2024/01/15 04:48:35;;;;;;;5.33;4.83;;;;;;;5.63;53.41;99411.06;5038210;28;20200;-75
2024/01/15 04:51:04;;;;;;;7.83;3.20;;;;;;;5.56;53.34;99415.22;5036706;28;20199;-77
2024/01/15 04:53:31;;;;;;;1.77;1.67;;;;;;;5.52;53.76;99418.53;4984257;28;20664;-79
2024/01/15 04:55:58;;;;;;;1.40;1.40;;;;;;;5.61;53.70;99416.16;5031071;28;20699;-76
2024/01/15 04:58:27;;;;;;;1.30;1.30;;;;;;;5.67;52.40;99415.47;5031397;28;20594;-76
2024/01/15 05:00:54;;;;;;;0.83;0.83;;;;;;;5.67;52.94;99418.03;5031157;28;20302;-76
2024/01/15 05:03:21;;;;;;;0.90;0.90;;;;;;;5.59;53.37;99392.13;5031301;28;20228;-75
2024/01/15 05:05:47;;;;;;;0.70;0.70;;;;;;;5.75;53.09;99416.50;5030943;28;20231;-76
2024/01/15 05:08:14;;;;;;;0.80;0.80;;;;;;;5.79;52.59;99410.59;5031670;28;20232;-80
2024/01/15 05:10:41;;;;;;;0.70;0.70;;;;;;;5.82;52.94;99420.94;5029873;28;20196;-77
2024/01/15 05:13:08;;;;;;;1.03;1.03;;;;;;;5.64;52.36;99415.38;5031877;28;20211;-80
2024/01/15 05:15:36;;;;;;;1.10;1.10;;;;;;;5.58;52.67;99426.38;5031410;28;20203;-77
2024/01/15 05:18:03;;;;;;;3.80;1.43;;;;;;;5.41;52.76;99425.09;5031898;28;20207;-79
2024/01/15 05:20:30;;;;;;;0.80;0.80;;;;;;;5.38;52.53;99425.91;5032617;28;20200;-73
2024/01/15 05:22:56;;;;;;;0.97;0.97;;;;;;;5.18;53.13;99405.66;5030639;28;20200;-73
2024/01/15 05:25:23;;;;;;;1.13;1.13;;;;;;;4.95;53.74;99389.69;5030563;28;20633;-72
2024/01/15 05:27:50;;;;;;;0.90;0.90;;;;;;;4.64;54.38;99331.50;5030373;28;20239;-72
2024/01/15 05:30:17;;;;;;;0.90;0.90;;;;;;;4.48;54.89;99314.84;4995490;28;20593;-73
2024/01/15 05:32:45;;;;;;;0.80;0.80;;;;;;;4.74;54.47;99342.91;5012028;28;20298;-72
2024/01/15 05:35:12;;;;;;;0.80;0.80;;;;;;;4.68;55.51;99315.34;5030551;28;20590;-74
2024/01/15 05:37:42;;;;;;;1.00;1.00;;;;;;;5.16;55.87;99377.38;5030778;28;20614;-73
2024/01/15 05:40:10;;;;;;;0.83;0.83;;;;;;;5.25;56.11;99371.56;5030697;28;20200;-74
2024/01/15 05:42:37;;;;;;;4.13;3.77;;;;;;;5.25;55.86;99384.44;4996452;28;20201;-73
2024/01/15 05:45:05;;;;;;;0.83;0.83;;;;;;;5.19;55.96;99371.44;5030400;28;20227;-73
2024/01/15 05:47:32;;;;;;;2.03;2.00;;;;;;;5.20;55.72;99373.19;5030432;28;20213;-72
2024/01/15 05:50:01;;;;;;;1.07;1.07;;;;;;;5.14;56.15;99362.72;5030612;28;20200;-73
2024/01/15 05:52:28;;;;;;;0.70;0.70;;;;;;;5.19;56.64;99366.31;4995719;28;20641;-74
2024/01/15 05:54:54;;;;;;;2.37;2.00;;;;;;;5.00;56.04;99331.56;5030228;28;20211;-73
2024/01/15 05:57:21;;;;;;;0.90;0.90;;;;;;;4.97;56.09;99321.22;5030643;28;20201;-74
2024/01/15 05:59:48;;;;;;;1.50;1.43;;;;;;;4.91;54.58;99301.41;5033224;28;20261;-74
2024/01/15 06:02:15;;;;;;;0.90;0.90;;;;;;;5.03;54.24;99326.50;5006554;28;20200;-73
2024/01/15 06:04:41;;;;;;;1.10;1.10;;;;;;;5.34;55.00;99382.97;5033512;28;20227;-74
2024/01/15 06:07:10;;;;;;;0.90;0.90;;;;;;;5.14;54.82;99340.47;5033348;28;20192;-72
2024/01/15 06:09:36;;;;;;;1.23;1.17;;;;;;;5.17;54.35;99345.72;5033713;28;20596;-73
2024/01/15 06:12:03;;;;;;;1.90;1.73;;;;;;;5.11;54.48;99363.53;5032740;28;20222;-75
2024/01/15 06:14:30;;;;;;;0.70;0.70;;;;;;;5.20;55.46;99376.63;5032875;28;20215;-73
2024/01/15 06:16:57;;;;;;;1.00;1.00;;;;;;;5.31;55.58;99374.31;4998692;28;20204;-72
2024/01/15 06:19:24;;;;;;;0.90;0.90;;;;;;;5.27;55.55;99378.53;5030017;28;20211;-73
2024/01/15 06:21:50;;;;;;;0.80;0.80;;;;;;;5.10;55.72;99351.50;5032557;28;20628;-73
2024/01/15 06:24:20;;;;;;;1.20;1.20;;;;;;;5.25;55.62;99374.16;4998341;28;20228;-74
2024/01/15 06:26:47;;;;;;;0.80;0.80;;;;;;;4.55;54.94;99250.84;5019545;28;20196;-74
2024/01/15 06:29:14;;;;;;;1.17;1.17;;;;;;;4.99;55.05;99350.41;5023314;28;20205;-74
2024/01/15 06:31:41;;;;;;;0.87;0.87;;;;;;;5.05;55.34;99373.66;5031024;28;20205;-73
2024/01/15 06:34:08;;;;;;;0.90;0.90;;;;;;;4.48;55.98;99278.91;5033108;28;20207;-74
2024/01/15 06:36:34;;;;;;;1.50;0.93;;;;;;;4.87;55.81;99356.09;4990284;28;20207;-72
2024/01/15 06:39:01;;;;;;;0.80;0.80;;;;;;;5.06;55.53;99367.72;5033076;28;20212;-71
2024/01/15 06:41:29;;;;;;;2.30;1.70;;;;;;;5.19;55.49;99374.88;5033289;28;20219;-73
2024/01/15 06:43:56;;;;;;;0.90;0.90;;;;;;;4.77;55.32;99317.31;5033482;28;20228;-72
2024/01/15 06:46:23;;;;;;;1.10;1.10;;;;;;;4.69;55.16;99309.41;5033307;28;20234;-72
2024/01/15 06:48:50;;;;;;;1.10;1.10;;;;;;;5.02;55.38;99339.31;5033535;28;20204;-71
2024/01/15 06:51:17;;;;;;;1.63;1.63;;;;;;;5.26;54.87;99381.91;5031930;28;20211;-71
2024/01/15 06:53:44;;;;;;;1.10;1.10;;;;;;;4.89;54.62;99302.19;4980365;28;20211;-71
2024/01/15 06:56:11;;;;;;;1.23;1.23;;;;;;;5.38;54.24;99371.06;5020954;28;20200;-73
2024/01/15 06:58:39;;;;;;;0.80;0.80;;;;;;;5.13;55.22;99338.78;5032683;28;20211;-71
2024/01/15 07:01:06;;;;;;;1.00;1.00;;;;;;;5.05;54.74;99335.13;5032894;28;20267;-71
2024/01/15 07:03:33;;;;;;;0.87;0.87;;;;;;;5.36;54.70;99347.88;5018902;28;20682;-73
2024/01/15 07:05:59;;;;;;;0.60;0.60;;;;;;;5.34;54.90;99328.13;5032899;28;20223;-73
2024/01/15 07:08:27;;;;;;;1.00;1.00;;;;;;;5.41;54.58;99323.16;5032994;28;20579;-72
2024/01/15 07:10:53;;;;;;;0.80;0.80;;;;;;;5.51;54.94;99329.38;5032360;28;20204;-73
2024/01/15 07:13:20;;;;;;;0.80;0.80;;;;;;;5.70;54.87;99351.25;5032391;28;20211;-72
2024/01/15 07:15:48;;;;;;;0.80;0.80;;;;;;;5.89;54.00;99353.41;5032881;28;20641;-72
2024/01/15 07:18:16;;;;;;;0.90;0.90;;;;;;;5.74;54.36;99359.03;5032774;28;20208;-71
2024/01/15 07:20:43;;;;;;;1.27;1.20;;;;;;;5.69;54.55;99318.63;4982006;28;20295;-72
2024/01/15 07:23:10;;;;;;;1.00;1.00;;;;;;;5.76;53.92;99323.06;5032648;28;20204;-72
2024/01/15 07:25:36;;;;;;;1.70;1.20;;;;;;;6.05;53.18;99352.91;5018129;28;20227;-72
2024/01/15 07:28:04;;;;;;;1.80;1.80;;;;;;;6.06;53.83;99352.06;4997916;28;20270;-73
2024/01/15 07:30:30;;;;;;;1.00;1.00;;;;;;;6.02;53.69;99351.97;4998001;28;20204;-73
2024/01/15 07:32:59;;;;;;;0.73;0.73;;;;;;;6.03;53.92;99344.28;5032388;28;20207;-73
2024/01/15 07:35:25;;;;;;;1.40;1.40;;;;;;;5.90;53.59;99332.88;5032267;28;20200;-74
2024/01/15 07:37:52;;;;;;;1.00;1.00;;;;;;;6.10;52.62;99353.84;5032107;28;20676;-73
2024/01/15 07:40:19;;;;;;;0.70;0.70;;;;;;;6.15;52.60;99351.38;5032351;28;20637;-73
2024/01/15 07:42:46;;;;;;;0.80;0.80;;;;;;;6.09;52.20;99339.28;5032117;28;20713;-73
2024/01/15 07:45:13;;;;;;;3.40;1.37;;;;;;;6.01;51.85;99315.06;5032082;28;20220;-74
2024/01/15 07:47:39;;;;;;;0.83;0.83;;;;;;;6.41;68.86;99335.63;4997486;28;20200;-74
2024/01/15 07:50:08;;;;;;;1.23;1.23;;;;;;;6.29;52.71;99345.69;5032121;28;20215;-74
2024/01/15 07:52:35;;;;;;;0.70;0.70;;;;;;;5.93;53.17;99290.88;5031815;28;20679;-74
2024/01/15 07:55:03;;;;;;;0.80;0.80;;;;;;;5.94;52.71;99334.66;5032251;28;20200;-76
2024/01/15 07:57:30;;;;;;;1.73;1.63;;;;;;;5.84;53.51;99316.41;5031979;28;20212;-74
2024/01/15 07:59:57;;;;;;;1.47;1.47;;;;;;;6.01;53.91;99350.22;5026144;28;20193;-73
2024/01/15 08:02:23;;;;;;;1.67;1.57;;;;;;;6.12;54.06;99349.63;5012360;28;20204;-75
2024/01/15 08:04:50;;;;;;;0.90;0.90;;;;;;;6.07;54.37;99351.22;4991358;28;20623;-74
2024/01/15 08:07:18;;;;;;;0.80;0.80;;;;;;;6.07;53.67;99330.63;5022154;28;20203;-74
2024/01/15 08:09:47;;;;;;;0.90;0.90;;;;;;;6.17;54.50;99335.13;5031706;28;20200;-74
2024/01/15 08:12:14;;;;;;;1.03;1.03;;;;;;;6.42;53.59;99367.41;4996968;28;20196;-74
2024/01/15 08:14:41;;;;;;;0.70;0.70;;;;;;;6.37;53.46;99341.56;5031631;28;20208;-74
2024/01/15 08:17:08;;;;;;;1.03;1.00;;;;;;;6.37;53.28;99354.44;5031615;28;20199;-76
2024/01/15 08:19:34;;;;;;;1.30;1.30;;;;;;;6.44;53.06;99352.84;5031418;28;20200;-75
2024/01/15 08:22:01;;;;;;;0.90;0.90;;;;;;;6.64;52.81;99345.47;5011724;28;20204;-74
2024/01/15 08:24:29;;;;;;;5.10;2.30;;;;;;;6.73;51.92;99345.66;5023322;28;20659;-74
2024/01/15 08:26:57;;;;;;;0.80;0.80;;;;;;;6.44;52.60;99338.25;5031445;28;20207;-70
2024/01/15 08:29:24;;;;;;;0.83;0.83;;;;;;;6.51;51.59;99334.09;5031358;28;20235;-75
2024/01/15 08:31:51;;;;;;;1.20;1.20;;;;;;;6.62;52.81;99332.59;5017399;28;20762;-75
2024/01/15 08:34:18;;;;;;;0.90;0.90;;;;;;;6.67;52.79;99330.94;5031458;28;20212;-75
2024/01/15 08:36:45;;;;;;;1.10;1.10;;;;;;;6.85;52.14;99326.13;5030714;28;20723;-76
2024/01/15 08:39:11;;;;;;;3.27;1.87;;;;;;;6.93;52.73;99324.56;5018492;28;20200;-75
2024/01/15 08:41:39;;;;;;;0.70;0.70;;;;;;;7.19;51.69;99311.25;5031554;28;20208;-75
2024/01/15 08:44:06;;;;;;;1.10;1.10;;;;;;;7.19;51.74;99294.06;5031091;28;20200;-74
2024/01/15 08:46:33;;;;;;;0.83;0.83;;;;;;;7.57;51.25;99312.69;5031112;28;20691;-75
2024/01/15 08:49:00;;;;;;;2.03;1.93;;;;;;;7.61;50.59;99311.88;5017063;28;20592;-74
2024/01/15 08:51:25;;;;;;;1.53;1.53;;;;;;;7.51;51.36;99314.31;5031282;28;20200;-76
2024/01/15 08:53:52;;;;;;;1.00;1.00;;;;;;;7.77;50.69;99303.53;5017389;28;20216;-76
2024/01/15 08:56:19;;;;;;;0.70;0.70;;;;;;;7.53;50.56;99300.56;5031326;28;20211;-75
2024/01/15 08:58:47;;;;;;;1.03;1.03;;;;;;;7.54;50.42;99291.13;5027413;28;20208;-75
2024/01/15 09:01:14;;;;;;;0.90;0.90;;;;;;;7.74;50.90;99297.47;5030884;28;20286;-78
2024/01/15 09:03:42;;;;;;;0.80;0.80;;;;;;;7.59;51.07;99263.72;5023085;28;20648;-76
2024/01/15 09:06:09;;;;;;;0.73;0.73;;;;;;;7.65;50.24;99235.41;5025121;28;20232;-78
2024/01/15 09:08:36;;;;;;;0.80;0.80;;;;;;;7.98;50.40;99282.28;5018654;28;20267;-77
2024/01/15 09:11:03;;;;;;;2.23;2.07;;;;;;;7.92;50.36;99261.53;5031652;28;20254;-78
2024/01/15 09:13:30;;;;;;;1.00;1.00;;;;;;;8.00;49.31;99280.56;4996801;28;20235;-77
2024/01/15 09:15:59;;;;;;;0.70;0.70;;;;;;;8.13;49.68;99291.94;5031138;28;20215;-76
2024/01/15 09:18:26;;;;;;;0.80;0.80;;;;;;;8.12;49.03;99280.72;5026998;28;20282;-77
2024/01/15 09:20:53;;;;;;;0.80;0.80;;;;;;;7.97;49.50;99272.81;5021678;28;20199;-77
2024/01/15 09:23:20;;;;;;;1.57;1.57;;;;;;;8.06;49.34;99251.41;5031037;28;20204;-76
2024/01/15 09:25:47;;;;;;;0.70;0.70;;;;;;;8.17;48.91;99242.91;5023226;28;20659;-80
2024/01/15 09:28:14;;;;;;;0.80;0.80;;;;;;;8.32;48.98;99245.69;5015209;28;20251;-78
2024/01/15 09:30:41;;;;;;;1.40;1.07;;;;;;;8.37;50.19;99272.44;5032245;28;20196;-70
2024/01/15 09:33:09;;;;;;;2.20;2.10;;;;;;;8.02;49.60;99253.09;5032359;28;20196;-76
2024/01/15 09:35:36;;;;;;;1.00;1.00;;;;;;;8.22;49.54;99266.22;5020617;28;20208;-73
2024/01/15 09:38:03;;;;;;;1.30;1.23;;;;;;;8.33;49.40;99267.22;5034734;28;20211;-75
2024/01/15 09:40:32;;;;;;;0.87;0.87;;;;;;;8.01;49.70;99204.00;5034461;28;20200;-74
2024/01/15 09:43:00;;;;;;;1.53;1.47;;;;;;;8.01;50.77;99243.59;5034530;28;20274;-77
2024/01/15 09:45:27;;;;;;;1.30;1.20;;;;;;;7.96;50.80;99243.53;5034219;28;20715;-74
2024/01/15 09:47:54;;;;;;;0.93;0.93;;;;;;;7.98;51.27;99230.66;5034646;28;20208;-77
2024/01/15 09:50:22;;;;;;;1.20;1.20;;;;;;;7.90;51.45;99232.28;5020484;28;20208;-76
2024/01/15 09:52:50;;;;;;;3.20;1.07;;;;;;;7.84;51.18;99234.78;5034476;28;20295;-78
2024/01/15 09:55:18;;;;;;;1.20;1.20;;;;;;;7.84;50.98;99221.91;5034446;28;20204;-75
2024/01/15 09:57:46;;;;;;;1.57;1.47;;;;;;;7.74;52.44;99199.41;5034215;28;20207;-82
2024/01/15 10:00:13;;;;;;;0.70;0.70;;;;;;;7.93;51.43;99216.81;5034014;28;20753;-72
2024/01/15 10:02:41;;;;;;;0.77;0.77;;;;;;;7.87;51.27;99206.44;5020161;28;20263;-73
2024/01/15 10:05:09;;;;;;;2.77;1.27;;;;;;;7.84;51.49;99190.94;5020549;28;20242;-74
2024/01/15 10:07:39;;;;;;;1.80;1.77;;;;;;;8.02;51.53;99198.00;5021140;28;20291;-75
2024/01/15 10:10:07;;;;;;;1.10;1.10;;;;;;;7.93;51.78;99185.84;4978416;28;20288;-74
2024/01/15 10:12:34;;;;;;;1.43;1.40;;;;;;;7.67;51.81;99135.69;5024943;28;20243;-75
2024/01/15 10:15:02;;;;;;;0.90;0.90;;;;;;;7.96;51.96;99160.06;5033218;28;20208;-76
2024/01/15 10:17:30;;;;;;;1.33;1.33;;;;;;;7.82;52.02;99141.88;5033320;28;20206;-76
2024/01/15 10:19:57;;;;;;;1.33;1.33;;;;;;;7.94;51.38;99135.97;5033135;28;20731;-75
2024/01/15 10:22:24;;;;;;;2.03;1.93;;;;;;;7.91;51.13;99125.63;5032942;28;20211;-75
2024/01/15 10:24:52;;;;;;;0.90;0.90;;;;;;;8.13;51.33;99122.41;5033092;28;20204;-74
2024/01/15 10:27:19;;;;;;;1.20;1.10;;;;;;;8.36;50.42;99132.97;4998275;28;20204;-75
2024/01/15 10:29:46;;;;;;;1.00;1.00;;;;;;;8.47;50.05;99144.25;5033042;28;20200;-75
2024/01/15 10:32:13;;;;;;;1.00;0.97;;;;;;;8.63;49.24;99145.25;5013538;28;20212;-74
2024/01/15 10:34:40;;;;;;;0.90;0.90;;;;;;;8.56;50.24;99123.63;5024673;28;20196;-75
2024/01/15 10:37:08;;;;;;;0.80;0.80;;;;;;;8.71;49.60;99104.81;5029181;28;20663;-75
2024/01/15 10:39:35;;;;;;;2.07;1.93;;;;;;;8.80;51.72;99056.66;5013454;28;20270;-75
2024/01/15 10:42:04;;;;;;;1.07;1.07;;;;;;;8.85;49.69;99078.19;5029286;28;20655;-75
2024/01/15 10:44:31;;;;;;;0.80;0.80;;;;;;;8.88;50.11;99080.78;5032156;28;20215;-75
2024/01/15 10:46:58;;;;;;;0.77;0.77;;;;;;;8.94;49.70;99051.53;5032558;28;20224;-74
2024/01/15 10:49:26;;;;;;;1.13;1.13;;;;;;;9.16;50.60;99073.19;5025677;28;20200;-72
2024/01/15 10:51:54;;;;;;;0.97;0.97;;;;;;;9.04;50.70;99037.78;5026059;28;20223;-74
2024/01/15 10:54:23;;;;;;;0.80;0.80;;;;;;;9.34;50.35;99065.50;5012946;28;20232;-73
2024/01/15 10:56:51;;;;;;;2.10;1.90;;;;;;;9.12;50.21;99043.88;5024447;28;20700;-72
2024/01/15 10:59:21;;;;;;;0.90;0.90;;;;;;;9.32;49.41;99046.50;5032545;28;20208;-76
2024/01/15 11:01:48;;;;;;;0.97;0.97;;;;;;;9.60;49.63;99052.63;5032337;28;20245;-73
2024/01/15 11:04:16;;;;;;;1.20;1.20;;;;;;;9.88;49.14;99060.44;5019406;28;20263;-79
2024/01/15 11:06:45;;;;;;;1.55;1.55;;;;;;;10.02;49.18;99047.53;5026145;28;20640;-73
2024/01/15 11:09:13;;;;;;;1.80;1.70;;;;;;;10.19;48.97;99053.59;5024397;28;20238;-74
2024/01/15 11:11:42;;;;;;;1.03;1.03;;;;;;;10.15;49.00;99032.88;5018187;28;20196;-75
2024/01/15 11:14:09;;;;;;;0.87;0.87;;;;;;;10.37;48.39;99034.59;5032173;28;20201;-74
2024/01/15 11:17:00;;;;;;;1.08;1.08;;;;;;;10.57;48.50;99044.91;5032025;28;20212;-73
2024/01/15 11:19:27;;;;;;;0.90;0.90;;;;;;;10.41;48.50;99016.47;5032132;28;20710;-74
2024/01/15 11:21:54;;;;;;;0.70;0.70;;;;;;;10.37;48.66;99025.09;5031951;28;20204;-74
2024/01/15 11:24:38;;;;;;;1.42;1.42;;;;;;;10.53;48.58;99040.59;4997347;28;20212;-74
2024/01/15 11:27:06;;;;;;;0.70;0.70;;;;;;;10.57;48.32;99038.00;5031355;28;20224;-73
2024/01/15 11:29:35;;;;;;;1.05;1.05;;;;;;;10.39;48.51;99010.41;5031792;28;20238;-72
2024/01/15 11:32:05;;;;;;;0.85;0.85;;;;;;;10.49;48.31;99008.66;4992994;28;20241;-74
2024/01/15 11:34:52;;;;;;;0.70;0.70;;;;;;;10.77;47.74;99025.00;5022204;28;20208;-74
2024/01/15 11:37:20;;;;;;;0.70;0.70;;;;;;;10.92;47.07;99033.59;5031602;28;20254;-74
2024/01/15 11:39:47;;;;;;;1.67;1.58;;;;;;;11.14;47.07;99036.97;5031304;28;20208;-73
2024/01/15 11:42:15;;;;;;;8.48;2.05;;;;;;;11.05;47.10;99031.84;4996866;28;20219;-73